Ana Sayfa
METAR-TAF:

METAR-TAF

Havaalanları :

Imperial Municipal Airport

Imperial, Nebraska, Amerika Birleşik Devletleri

Enlem: 40-31N, Boylam: 101-37W, yükseklik: 997 m

Güncel hava durumu gözlemi

Rapor saat 15:53 UTC de 25 dakika önce yapıldı.
Rüzgar doğudan 8 kt
Sıcaklık 16°C
Nem 63%
Basınç 1026 hPa
Görüş mesafesi: 16.1 km
6000 ft yükseklikte çok bulutlu

METAR: KIML 191553Z AUTO 08008KT 10SM OVC060 16/09 A3029 RMK AO2 SLP246 T01610089

Saat: 10:18 (16:18 UTC)


TAF: eksik

4.000'den fazla havaalanı için hava durumu gözlemleri ve tahminleri (METAR ve TAF raporları).

Kullanılabilir istasyonlar harita üzerinde sarı ve kırmızı noktalarla gösterilir.

İstasyonun adını görmek için fareyi noktanın üzerinde gezdirin.

Sonrasında hava gözlem ve tahminlerini görmek için tıklayın.

Haritayı değiştirmek için: yaklaştırmak için siyah artı işaretli yeşil düğmeye ve uzaklaştırmak için de eksi işaretli düğmeye hızla tıklayın; bitişik haritalar için yeşil okları kullanın.


METAR-TAF: